createdAt,value
2023-03-13T00:00:06.447Z,11.55
2023-03-13T00:05:09.170Z,11.49
2023-03-13T00:10:11.689Z,11.57
2023-03-13T00:15:13.863Z,11.53
2023-03-13T00:20:18.265Z,11.49
2023-03-13T00:25:21.182Z,11.42
2023-03-13T00:30:24.266Z,11.50
2023-03-13T00:35:26.522Z,11.59
2023-03-13T00:40:28.809Z,11.70
2023-03-13T00:45:31.247Z,11.66
2023-03-13T00:50:33.443Z,11.80
2023-03-13T00:55:35.561Z,11.76
2023-03-13T01:00:38.177Z,11.76
2023-03-13T01:05:40.338Z,11.83
2023-03-13T01:10:42.521Z,11.52
2023-03-13T01:15:45.284Z,11.46
2023-03-13T01:20:47.570Z,11.24
2023-03-13T01:25:50.188Z,11.19
2023-03-13T01:30:52.602Z,11.26
2023-03-13T01:36:03.141Z,11.34
2023-03-13T01:41:07.669Z,11.15
2023-03-13T01:46:14.221Z,11.18
2023-03-13T01:51:33.930Z,11.05
2023-03-13T01:57:07.434Z,11.11
2023-03-13T02:02:11.120Z,11.07
2023-03-13T02:07:22.952Z,11.00
2023-03-13T02:12:31.950Z,10.99
2023-03-13T02:17:36.276Z,10.78
2023-03-13T02:23:35.775Z,10.79
2023-03-13T02:28:39.714Z,10.69
2023-03-13T02:33:45.071Z,10.40
2023-03-13T02:38:57.658Z,10.48
2023-03-13T02:43:59.790Z,10.59
2023-03-13T02:49:21.160Z,10.60
2023-03-13T02:54:27.410Z,10.96
2023-03-13T02:59:30.128Z,10.95
2023-03-13T03:04:32.341Z,10.79
2023-03-13T03:09:34.534Z,10.71
2023-03-13T03:14:36.888Z,10.90
2023-03-13T03:19:39.005Z,11.04
2023-03-13T03:24:41.093Z,11.04
2023-03-13T03:29:43.994Z,11.26
2023-03-13T03:34:46.146Z,11.39
2023-03-13T03:39:48.306Z,11.43
2023-03-13T03:44:51.113Z,11.62
2023-03-13T03:49:53.261Z,11.88
2023-03-13T03:54:55.351Z,11.81
2023-03-13T03:59:57.534Z,11.81
2023-03-13T04:04:59.981Z,11.63
2023-03-13T04:10:02.555Z,11.77
2023-03-13T04:15:04.992Z,11.89
2023-03-13T04:20:08.270Z,11.72
2023-03-13T04:25:11.116Z,11.68
2023-03-13T04:30:13.708Z,11.59
2023-03-13T04:35:16.099Z,11.51
2023-03-13T04:40:18.396Z,11.59
2023-03-13T04:45:20.625Z,11.46
2023-03-13T04:50:22.712Z,11.37
2023-03-13T04:55:24.799Z,11.23
2023-03-13T05:00:26.966Z,11.13
2023-03-13T05:05:29.088Z,11.21
2023-03-13T05:10:31.314Z,10.96
2023-03-13T05:15:33.470Z,10.85
2023-03-13T05:20:35.622Z,10.80
2023-03-13T05:25:37.806Z,10.77
2023-03-13T05:30:40.885Z,10.82
2023-03-13T05:35:43.569Z,10.74
2023-03-13T05:40:45.797Z,10.83
2023-03-13T05:45:49.487Z,10.77
2023-03-13T05:50:51.705Z,10.83
2023-03-13T05:55:53.821Z,11.16
2023-03-13T06:00:56.051Z,10.94
2023-03-13T06:05:59.696Z,10.79
2023-03-13T06:11:03.696Z,10.75
2023-03-13T06:16:06.490Z,11.06
2023-03-13T06:21:08.834Z,11.13
2023-03-13T06:26:11.766Z,10.97
2023-03-13T06:31:14.127Z,11.07
2023-03-13T06:36:16.872Z,10.87
2023-03-13T06:41:19.118Z,11.10
2023-03-13T06:46:24.017Z,11.26
2023-03-13T06:51:29.471Z,11.41
2023-03-13T06:56:32.635Z,11.27
2023-03-13T07:01:34.841Z,11.44
2023-03-13T07:06:37.723Z,11.60
2023-03-13T07:11:40.659Z,11.71
2023-03-13T07:16:44.695Z,12.01
2023-03-13T07:21:47.739Z,11.90
2023-03-13T07:27:04.931Z,12.10
2023-03-13T07:32:10.325Z,12.26
2023-03-13T07:37:14.255Z,12.57
2023-03-13T07:42:17.204Z,12.55
2023-03-13T07:47:20.129Z,12.88
2023-03-13T07:52:23.422Z,12.83
2023-03-13T07:57:25.614Z,12.93
2023-03-13T08:02:27.889Z,13.21
2023-03-13T08:07:30.810Z,13.29
2023-03-13T08:12:34.148Z,13.46
2023-03-13T08:17:36.321Z,13.58
2023-03-13T08:22:38.612Z,13.44
2023-03-13T08:27:41.512Z,13.41
2023-03-13T08:32:44.822Z,13.76
2023-03-13T08:37:46.873Z,13.85
2023-03-13T08:42:49.493Z,13.90
2023-03-13T08:47:54.760Z,13.63
2023-03-13T08:52:56.924Z,13.99
2023-03-13T08:57:59.118Z,14.38
2023-03-13T09:03:01.276Z,14.39
2023-03-13T09:08:03.449Z,14.43
2023-03-13T09:13:05.797Z,14.73
2023-03-13T09:18:08.630Z,15.26
2023-03-13T09:23:10.929Z,15.05
2023-03-13T09:28:13.495Z,15.41
2023-03-13T09:33:15.624Z,15.91
2023-03-13T09:38:19.351Z,16.00
2023-03-13T09:43:43.657Z,16.38
2023-03-13T09:48:57.781Z,16.32
2023-03-13T09:54:51.084Z,16.35
2023-03-13T10:00:31.534Z,15.82
2023-03-13T10:05:35.422Z,15.80
2023-03-13T10:10:59.320Z,16.26
2023-03-13T10:16:11.374Z,15.80
2023-03-13T10:21:27.416Z,15.55
2023-03-13T10:26:33.155Z,15.64
2023-03-13T10:31:38.466Z,16.34
2023-03-13T10:36:44.721Z,16.44
2023-03-13T10:41:48.401Z,16.91
2023-03-13T10:46:52.128Z,17.45
2023-03-13T10:52:01.260Z,17.32
2023-03-13T10:57:29.460Z,17.22
2023-03-13T11:02:40.001Z,17.03
2023-03-13T11:07:42.308Z,16.86
2023-03-13T11:12:52.924Z,16.75
2023-03-13T11:18:12.520Z,16.29
2023-03-13T11:23:21.853Z,16.37
2023-03-13T11:28:57.742Z,17.04
2023-03-13T11:34:31.288Z,17.13
2023-03-13T11:39:45.256Z,17.51
2023-03-13T11:44:59.187Z,17.63
2023-03-13T11:50:16.345Z,17.67
2023-03-13T11:55:30.203Z,17.62
2023-03-13T12:00:48.596Z,17.57
2023-03-13T12:05:56.257Z,18.23
2023-03-13T12:11:05.164Z,18.28
2023-03-13T12:16:16.097Z,17.92
2023-03-13T12:21:53.815Z,17.65
2023-03-13T12:27:32.954Z,17.51
2023-03-13T12:32:45.859Z,17.65
2023-03-13T12:37:48.002Z,18.08
2023-03-13T12:43:02.765Z,18.04
2023-03-13T12:48:46.095Z,18.01
2023-03-13T12:54:03.998Z,17.90
2023-03-13T12:59:15.516Z,17.00
2023-03-13T13:04:26.160Z,17.53
2023-03-13T13:09:37.406Z,18.05
2023-03-13T13:14:48.282Z,18.09
2023-03-13T13:19:51.139Z,18.56
2023-03-13T13:25:00.986Z,19.05
2023-03-13T13:30:05.528Z,19.42
2023-03-13T13:35:25.177Z,19.68
2023-03-13T13:40:29.911Z,20.01
2023-03-13T13:45:35.881Z,19.96
2023-03-13T13:50:38.483Z,19.69
2023-03-13T13:55:40.545Z,18.85
2023-03-13T14:00:53.290Z,19.03
2023-03-13T14:06:02.430Z,19.48
2023-03-13T14:11:17.120Z,20.17
2023-03-13T14:16:27.669Z,20.75
2023-03-13T14:21:29.967Z,21.01
2023-03-13T14:26:34.166Z,21.31
2023-03-13T14:31:39.241Z,21.64
2023-03-13T14:36:50.294Z,21.73
2023-03-13T14:41:53.238Z,21.63
2023-03-13T14:46:57.591Z,21.65
2023-03-13T14:52:07.066Z,21.12
2023-03-13T14:57:18.375Z,21.21
2023-03-13T15:02:27.547Z,21.78
2023-03-13T15:08:04.809Z,21.94
2023-03-13T15:13:33.072Z,22.00
2023-03-13T15:18:35.307Z,20.81
2023-03-13T15:23:37.468Z,21.16
2023-03-13T15:28:39.563Z,21.75
2023-03-13T15:33:42.952Z,22.08
2023-03-13T15:38:45.031Z,21.61
2023-03-13T15:43:47.217Z,21.92
2023-03-13T15:48:50.013Z,22.19
2023-03-13T15:53:53.553Z,22.25
2023-03-13T15:58:56.933Z,23.19
2023-03-13T16:04:01.028Z,22.73
2023-03-13T16:09:07.188Z,20.90
2023-03-13T16:14:09.328Z,19.72
2023-03-13T16:19:11.957Z,18.68
2023-03-13T16:24:14.667Z,18.29
2023-03-13T16:29:17.212Z,17.63
2023-03-13T16:34:19.328Z,17.12
2023-03-13T16:39:21.942Z,17.07
2023-03-13T16:44:27.312Z,17.29
2023-03-13T16:49:29.544Z,17.16
2023-03-13T16:54:31.869Z,16.99
2023-03-13T16:59:34.004Z,16.68
2023-03-13T17:04:36.211Z,16.45
2023-03-13T17:09:38.338Z,16.59
2023-03-13T17:14:40.905Z,16.30
2023-03-13T17:19:43.066Z,16.03
2023-03-13T17:24:45.205Z,15.97
2023-03-13T17:29:47.697Z,15.91
2023-03-13T17:34:49.865Z,15.78
2023-03-13T17:39:52.047Z,15.77
2023-03-13T17:44:54.853Z,15.65
2023-03-13T17:49:57.023Z,14.93
2023-03-13T17:54:59.130Z,14.79
2023-03-13T18:00:01.282Z,14.97
2023-03-13T18:05:03.530Z,15.07
2023-03-13T18:10:11.208Z,15.09
2023-03-13T18:15:13.341Z,14.96
2023-03-13T18:20:21.461Z,14.56
2023-03-13T18:25:23.519Z,14.51
2023-03-13T18:30:27.815Z,14.45
2023-03-13T18:35:30.073Z,14.30
2023-03-13T18:40:32.270Z,14.26
2023-03-13T18:45:34.494Z,14.11
2023-03-13T18:50:36.691Z,13.94
2023-03-13T18:55:38.822Z,13.59
2023-03-13T19:00:41.082Z,13.52
2023-03-13T19:05:43.243Z,13.56
2023-03-13T19:10:45.396Z,13.65
2023-03-13T19:15:47.651Z,13.66
2023-03-13T19:20:50.688Z,13.64
2023-03-13T19:25:53.804Z,13.64
2023-03-13T19:30:56.666Z,13.79
2023-03-13T19:35:59.673Z,13.73
2023-03-13T19:41:01.821Z,13.68
2023-03-13T19:46:24.291Z,13.65
2023-03-13T19:51:28.109Z,13.66
2023-03-13T19:56:31.995Z,13.58
2023-03-13T20:01:34.351Z,13.39
2023-03-13T20:06:39.970Z,13.40
2023-03-13T20:11:42.413Z,13.11
2023-03-13T20:16:46.882Z,12.69
2023-03-13T20:21:50.640Z,12.69
2023-03-13T20:26:52.819Z,12.76
2023-03-13T20:31:55.796Z,12.86
2023-03-13T20:37:00.280Z,12.95
2023-03-13T20:42:03.433Z,12.86
2023-03-13T20:47:05.657Z,12.95
2023-03-13T20:52:07.787Z,12.83
2023-03-13T20:57:10.513Z,12.93
2023-03-13T21:02:13.620Z,12.80
2023-03-13T21:07:16.549Z,12.55
2023-03-13T21:12:19.554Z,12.53
2023-03-13T21:17:21.760Z,12.45
2023-03-13T21:22:28.323Z,12.13
2023-03-13T21:27:30.381Z,11.66
2023-03-13T21:32:33.526Z,11.45
2023-03-13T21:37:36.771Z,11.45
2023-03-13T21:42:39.522Z,11.67
2023-03-13T21:47:41.668Z,11.80
2023-03-13T21:52:43.975Z,11.75
2023-03-13T21:57:46.204Z,11.61
2023-03-13T22:02:48.343Z,11.68
2023-03-13T22:07:50.488Z,11.79
2023-03-13T22:12:52.672Z,11.42
2023-03-13T22:17:55.408Z,11.05
2023-03-13T22:22:58.119Z,10.84
2023-03-13T22:28:00.396Z,10.64
2023-03-13T22:33:07.465Z,10.73
2023-03-13T22:38:09.636Z,10.73
2023-03-13T22:43:12.010Z,10.84
2023-03-13T22:48:14.674Z,10.91
2023-03-13T22:53:16.747Z,10.88
2023-03-13T22:58:18.933Z,11.01
2023-03-13T23:03:21.747Z,11.10
2023-03-13T23:08:24.355Z,10.85
2023-03-13T23:13:26.415Z,10.78
2023-03-13T23:18:28.899Z,10.50
2023-03-13T23:23:31.079Z,10.73
2023-03-13T23:28:34.504Z,10.57
2023-03-13T23:33:37.321Z,10.21
2023-03-13T23:38:40.368Z,10.16
2023-03-13T23:43:42.653Z,10.07
2023-03-13T23:48:45.346Z,10.23
2023-03-13T23:53:47.553Z,10.30
2023-03-13T23:58:49.751Z,10.00
